createdAt,value
2023-05-08T00:00:35.801Z,1015.45
2023-05-08T00:01:35.785Z,1015.47
2023-05-08T00:02:35.843Z,1015.43
2023-05-08T00:03:35.943Z,1015.46
2023-05-08T00:04:35.735Z,1015.42
2023-05-08T00:05:35.686Z,1015.41
2023-05-08T00:06:35.660Z,1015.44
2023-05-08T00:07:35.645Z,1015.42
2023-05-08T00:08:35.616Z,1015.47
2023-05-08T00:09:35.600Z,1015.44
2023-05-08T00:10:35.574Z,1015.45
2023-05-08T00:11:35.563Z,1015.47
2023-05-08T00:12:35.524Z,1015.49
2023-05-08T00:13:35.528Z,1015.50
2023-05-08T00:14:35.486Z,1015.45
2023-05-08T00:15:35.495Z,1015.54
2023-05-08T00:16:35.462Z,1015.50
2023-05-08T00:17:35.448Z,1015.48
2023-05-08T00:18:35.400Z,1015.51
2023-05-08T00:19:35.375Z,1015.52
2023-05-08T00:20:35.355Z,1015.55
2023-05-08T00:21:35.335Z,1015.55
2023-05-08T00:22:35.308Z,1015.54
2023-05-08T00:23:35.286Z,1015.53
2023-05-08T00:24:35.265Z,1015.51
2023-05-08T00:25:35.299Z,1015.49
2023-05-08T00:26:35.221Z,1015.47
2023-05-08T00:27:35.205Z,1015.52
2023-05-08T00:28:35.182Z,1015.48
2023-05-08T00:29:35.152Z,1015.47
2023-05-08T00:30:35.134Z,1015.46
2023-05-08T00:31:35.200Z,1015.48
2023-05-08T00:32:35.152Z,1015.47
2023-05-08T00:33:35.078Z,1015.44
2023-05-08T00:34:35.063Z,1015.42
2023-05-08T00:35:35.020Z,1015.42
2023-05-08T00:36:35.003Z,1015.40
2023-05-08T00:37:34.977Z,1015.42
2023-05-08T00:38:34.954Z,1015.43
2023-05-08T00:39:34.950Z,1015.42
2023-05-08T00:40:34.916Z,1015.45
2023-05-08T00:41:34.893Z,1015.43
2023-05-08T00:42:34.873Z,1015.43
2023-05-08T00:43:34.842Z,1015.48
2023-05-08T00:44:34.825Z,1015.47
2023-05-08T00:45:34.800Z,1015.45
2023-05-08T00:46:34.817Z,1015.47
2023-05-08T00:47:34.866Z,1015.43
2023-05-08T00:48:34.743Z,1015.46
2023-05-08T00:49:34.714Z,1015.44
2023-05-08T00:50:34.698Z,1015.46
2023-05-08T00:51:34.686Z,1015.44
2023-05-08T00:52:34.650Z,1015.45
2023-05-08T00:53:34.635Z,1015.46
2023-05-08T00:54:34.608Z,1015.42
2023-05-08T00:55:34.591Z,1015.35
2023-05-08T00:56:34.560Z,1015.37
2023-05-08T00:57:34.557Z,1015.38
2023-05-08T00:58:34.519Z,1015.37
2023-05-08T00:59:34.494Z,1015.34
2023-05-08T01:00:34.470Z,1015.38
2023-05-08T01:01:34.485Z,1015.38
2023-05-08T01:02:34.479Z,1015.42
2023-05-08T01:03:34.500Z,1015.42
2023-05-08T01:04:34.375Z,1015.43
2023-05-08T01:05:34.358Z,1015.40
2023-05-08T01:06:34.338Z,1015.41
2023-05-08T01:07:34.314Z,1015.41
2023-05-08T01:08:34.304Z,1015.38
2023-05-08T01:09:34.271Z,1015.40
2023-05-08T01:10:34.254Z,1015.43
2023-05-08T01:11:34.224Z,1015.41
2023-05-08T01:12:34.212Z,1015.41
2023-05-08T01:13:34.182Z,1015.44
2023-05-08T01:14:34.166Z,1015.42
2023-05-08T01:15:34.136Z,1015.45
2023-05-08T01:16:34.176Z,1015.41
2023-05-08T01:17:34.128Z,1015.42
2023-05-08T01:18:34.080Z,1015.41
2023-05-08T01:19:34.080Z,1015.42
2023-05-08T01:20:34.035Z,1015.40
2023-05-08T01:21:34.002Z,1015.38
2023-05-08T01:22:33.994Z,1015.39
2023-05-08T01:23:33.962Z,1015.41
2023-05-08T01:24:33.938Z,1015.40
2023-05-08T01:25:33.920Z,1015.43
2023-05-08T01:26:33.901Z,1015.39
2023-05-08T01:27:33.871Z,1015.39
2023-05-08T01:28:33.849Z,1015.43
2023-05-08T01:29:33.868Z,1015.43
2023-05-08T01:30:33.811Z,1015.43
2023-05-08T01:31:33.786Z,1015.45
2023-05-08T01:32:33.819Z,1015.46
2023-05-08T01:33:33.807Z,1015.45
2023-05-08T01:34:33.724Z,1015.48
2023-05-08T01:35:33.726Z,1015.44
2023-05-08T01:36:33.677Z,1015.43
2023-05-08T01:37:33.659Z,1015.44
2023-05-08T01:38:33.647Z,1015.41
2023-05-08T01:39:33.611Z,1015.41
2023-05-08T01:40:33.600Z,1015.42
2023-05-08T01:41:33.560Z,1015.41
2023-05-08T01:42:33.542Z,1015.40
2023-05-08T01:43:33.519Z,1015.42
2023-05-08T01:44:33.492Z,1015.41
2023-05-08T01:45:33.473Z,1015.40
2023-05-08T01:46:33.477Z,1015.43
2023-05-08T01:47:33.448Z,1015.41
2023-05-08T01:48:33.403Z,1015.41
2023-05-08T01:49:33.388Z,1015.43
2023-05-08T01:50:33.375Z,1015.40
2023-05-08T01:51:33.396Z,1015.39
2023-05-08T01:52:33.318Z,1015.41
2023-05-08T01:53:33.302Z,1015.36
2023-05-08T01:54:33.272Z,1015.38
2023-05-08T01:55:33.252Z,1015.37
2023-05-08T01:56:33.233Z,1015.39
2023-05-08T01:57:33.204Z,1015.38
2023-05-08T01:58:33.188Z,1015.39
2023-05-08T01:59:33.161Z,1015.41
2023-05-08T02:00:33.177Z,1015.41
2023-05-08T02:01:33.124Z,1015.39
2023-05-08T02:02:33.239Z,1015.43
2023-05-08T02:03:33.221Z,1015.42
2023-05-08T02:04:33.052Z,1015.46
2023-05-08T02:05:33.022Z,1015.45
2023-05-08T02:06:33.003Z,1015.50
2023-05-08T02:07:33.007Z,1015.47
2023-05-08T02:08:32.965Z,1015.47
2023-05-08T02:09:32.946Z,1015.48
2023-05-08T02:10:32.918Z,1015.49
2023-05-08T02:11:32.892Z,1015.49
2023-05-08T02:12:32.879Z,1015.47
2023-05-08T02:13:32.865Z,1015.48
2023-05-08T02:14:32.836Z,1015.48
2023-05-08T02:15:32.815Z,1015.45
2023-05-08T02:16:32.823Z,1015.45
2023-05-08T02:17:32.794Z,1015.48
2023-05-08T02:18:32.737Z,1015.48
2023-05-08T02:19:32.741Z,1015.50
2023-05-08T02:20:32.692Z,1015.53
2023-05-08T02:21:32.692Z,1015.50
2023-05-08T02:22:32.675Z,1015.50
2023-05-08T02:23:32.657Z,1015.53
2023-05-08T02:24:32.602Z,1015.51
2023-05-08T02:25:32.600Z,1015.50
2023-05-08T02:26:32.567Z,1015.50
2023-05-08T02:27:32.546Z,1015.53
2023-05-08T02:28:32.547Z,1015.49
2023-05-08T02:29:32.486Z,1015.48
2023-05-08T02:30:32.468Z,1015.47
2023-05-08T02:31:32.470Z,1015.46
2023-05-08T02:32:32.434Z,1015.48
2023-05-08T02:33:32.398Z,1015.48
2023-05-08T02:34:32.377Z,1015.49
2023-05-08T02:35:32.357Z,1015.48
2023-05-08T02:36:32.349Z,1015.45
2023-05-08T02:37:32.314Z,1015.50
2023-05-08T02:38:32.291Z,1015.48
2023-05-08T02:39:32.288Z,1015.50
2023-05-08T02:40:32.241Z,1015.49
2023-05-08T02:41:32.222Z,1015.49
2023-05-08T02:42:32.202Z,1015.47
2023-05-08T02:43:32.175Z,1015.47
2023-05-08T02:44:32.151Z,1015.44
2023-05-08T02:45:32.141Z,1015.45
2023-05-08T02:46:32.233Z,1015.45
2023-05-08T02:47:32.156Z,1015.46
2023-05-08T02:48:32.058Z,1015.46
2023-05-08T02:49:32.045Z,1015.48
2023-05-08T02:50:32.033Z,1015.47
2023-05-08T02:51:32.003Z,1015.52
2023-05-08T02:52:31.982Z,1015.50
2023-05-08T02:53:31.953Z,1015.53
2023-05-08T02:54:31.927Z,1015.48
2023-05-08T02:55:31.924Z,1015.48
2023-05-08T02:56:31.891Z,1015.51
2023-05-08T02:57:31.857Z,1015.49
2023-05-08T02:58:31.848Z,1015.48
2023-05-08T02:59:31.807Z,1015.46
2023-05-08T03:00:31.791Z,1015.48
2023-05-08T03:01:31.831Z,1015.44
2023-05-08T03:02:31.813Z,1015.42
2023-05-08T03:03:31.825Z,1015.45
2023-05-08T03:04:31.700Z,1015.44
2023-05-08T03:05:31.680Z,1015.46
2023-05-08T03:06:31.659Z,1015.43
2023-05-08T03:07:31.631Z,1015.46
2023-05-08T03:08:31.609Z,1015.44
2023-05-08T03:09:31.582Z,1015.44
2023-05-08T03:10:31.562Z,1015.43
2023-05-08T03:11:31.561Z,1015.43
2023-05-08T03:12:31.518Z,1015.46
2023-05-08T03:13:31.558Z,1015.48
2023-05-08T03:14:31.472Z,1015.42
2023-05-08T03:15:31.444Z,1015.42
2023-05-08T03:16:31.486Z,1015.41
2023-05-08T03:17:31.407Z,1015.41
2023-05-08T03:18:31.389Z,1015.41
2023-05-08T03:19:31.351Z,1015.44
2023-05-08T03:20:31.342Z,1015.45
2023-05-08T03:21:31.321Z,1015.42
2023-05-08T03:22:31.292Z,1015.46
2023-05-08T03:23:31.264Z,1015.43
2023-05-08T03:24:31.247Z,1015.46
2023-05-08T03:25:31.227Z,1015.43
2023-05-08T03:26:31.204Z,1015.42
2023-05-08T03:27:31.205Z,1015.39
2023-05-08T03:28:31.158Z,1015.42
2023-05-08T03:29:31.127Z,1015.37
2023-05-08T03:30:31.113Z,1015.37
2023-05-08T03:31:31.095Z,1015.34
2023-05-08T03:32:31.097Z,1015.37
2023-05-08T03:33:31.043Z,1015.34
2023-05-08T03:34:31.020Z,1015.28
2023-05-08T03:35:30.999Z,1015.32
2023-05-08T03:36:30.979Z,1015.32
2023-05-08T03:37:30.948Z,1015.30
2023-05-08T03:38:30.938Z,1015.28
2023-05-08T03:39:30.905Z,1015.31
2023-05-08T03:40:30.882Z,1015.28
2023-05-08T03:41:30.859Z,1015.26
2023-05-08T03:42:30.837Z,1015.28
2023-05-08T03:43:30.852Z,1015.26
2023-05-08T03:44:30.795Z,1015.28
2023-05-08T03:45:30.766Z,1015.24
2023-05-08T03:46:30.789Z,1015.24
2023-05-08T03:47:30.750Z,1015.20
2023-05-08T03:48:30.697Z,1015.21
2023-05-08T03:49:30.688Z,1015.24
2023-05-08T03:50:30.654Z,1015.20
2023-05-08T03:51:30.630Z,1015.24
2023-05-08T03:52:30.611Z,1015.24
2023-05-08T03:53:30.589Z,1015.21
2023-05-08T03:54:30.576Z,1015.24
2023-05-08T03:55:30.550Z,1015.27
2023-05-08T03:56:30.520Z,1015.24
2023-05-08T03:57:30.498Z,1015.32
2023-05-08T03:58:30.478Z,1015.27
2023-05-08T03:59:30.478Z,1015.31
2023-05-08T04:00:30.442Z,1015.31
2023-05-08T04:01:30.427Z,1015.31
2023-05-08T04:02:30.572Z,1015.31
2023-05-08T04:03:30.434Z,1015.33
2023-05-08T04:04:30.352Z,1015.37
2023-05-08T04:05:30.335Z,1015.35
2023-05-08T04:06:35.631Z,1015.35
2023-05-08T04:07:30.296Z,1015.34
2023-05-08T04:08:30.261Z,1015.33
2023-05-08T04:09:30.229Z,1015.35
2023-05-08T04:10:30.232Z,1015.36
2023-05-08T04:11:30.182Z,1015.35
2023-05-08T04:12:30.169Z,1015.36
2023-05-08T04:13:30.207Z,1015.37
2023-05-08T04:14:30.126Z,1015.38
2023-05-08T04:15:30.141Z,1015.36
2023-05-08T04:16:30.134Z,1015.43
2023-05-08T04:17:30.104Z,1015.43
2023-05-08T04:18:30.040Z,1015.44
2023-05-08T04:19:30.018Z,1015.43
2023-05-08T04:20:29.991Z,1015.42
2023-05-08T04:21:29.964Z,1015.43
2023-05-08T04:22:29.964Z,1015.43
2023-05-08T04:23:29.937Z,1015.43
2023-05-08T04:24:29.901Z,1015.42
2023-05-08T04:25:29.874Z,1015.46
2023-05-08T04:26:29.855Z,1015.40
2023-05-08T04:27:29.827Z,1015.40
2023-05-08T04:28:29.807Z,1015.43
2023-05-08T04:29:29.784Z,1015.43
2023-05-08T04:30:29.766Z,1015.44
2023-05-08T04:31:29.822Z,1015.46
2023-05-08T04:32:29.734Z,1015.46
2023-05-08T04:33:29.707Z,1015.46
2023-05-08T04:34:29.670Z,1015.53
2023-05-08T04:35:29.646Z,1015.52
2023-05-08T04:36:29.625Z,1015.56
2023-05-08T04:37:29.617Z,1015.54
2023-05-08T04:38:29.577Z,1015.57
2023-05-08T04:39:29.555Z,1015.57
2023-05-08T04:40:29.534Z,1015.58
2023-05-08T04:41:29.536Z,1015.60
2023-05-08T04:42:29.489Z,1015.61
2023-05-08T04:43:29.473Z,1015.66
2023-05-08T04:44:29.442Z,1015.65
2023-05-08T04:45:29.429Z,1015.64
2023-05-08T04:46:29.472Z,1015.66
2023-05-08T04:47:29.468Z,1015.66
2023-05-08T04:48:29.361Z,1015.67
2023-05-08T04:49:29.340Z,1015.66
2023-05-08T04:50:29.306Z,1015.69
2023-05-08T04:51:29.291Z,1015.69
2023-05-08T04:52:29.269Z,1015.69
2023-05-08T04:53:29.271Z,1015.73
2023-05-08T04:54:29.217Z,1015.77
2023-05-08T04:55:29.200Z,1015.77
2023-05-08T04:56:29.178Z,1015.78
2023-05-08T04:57:29.167Z,1015.80
2023-05-08T04:58:29.130Z,1015.79
2023-05-08T04:59:29.113Z,1015.82
2023-05-08T05:00:29.098Z,1015.80
2023-05-08T05:01:29.098Z,1015.82
2023-05-08T05:02:29.064Z,1015.82
2023-05-08T05:03:29.084Z,1015.85
2023-05-08T05:04:28.994Z,1015.85
2023-05-08T05:05:28.976Z,1015.84
2023-05-08T05:06:28.940Z,1015.87
2023-05-08T05:07:28.923Z,1015.87
2023-05-08T05:08:28.901Z,1015.87
2023-05-08T05:09:28.898Z,1015.90
2023-05-08T05:10:28.851Z,1015.89
2023-05-08T05:11:28.834Z,1015.92
2023-05-08T05:12:28.815Z,1015.93
2023-05-08T05:13:28.915Z,1015.93
2023-05-08T05:14:28.765Z,1015.93
2023-05-08T05:15:28.750Z,1015.89
2023-05-08T05:16:28.753Z,1015.89
2023-05-08T05:17:28.727Z,1015.91
2023-05-08T05:18:28.672Z,1015.89
2023-05-08T05:19:28.741Z,1015.91
2023-05-08T05:20:28.637Z,1015.91
2023-05-08T05:21:28.618Z,1015.90
2023-05-08T05:22:28.584Z,1015.93
2023-05-08T05:23:28.560Z,1015.91
2023-05-08T05:24:28.530Z,1015.95
2023-05-08T05:25:28.522Z,1015.91
2023-05-08T05:26:28.489Z,1015.93
2023-05-08T05:27:28.471Z,1015.91
2023-05-08T05:28:28.450Z,1015.95
2023-05-08T05:29:28.425Z,1015.95
2023-05-08T05:30:28.397Z,1015.93
2023-05-08T05:31:28.440Z,1015.97
2023-05-08T05:32:28.437Z,1015.91
2023-05-08T05:33:28.389Z,1015.94
2023-05-08T05:34:28.309Z,1015.92
2023-05-08T05:35:28.312Z,1015.91
2023-05-08T05:36:28.268Z,1015.95
2023-05-08T05:37:28.262Z,1015.94
2023-05-08T05:38:28.213Z,1015.93
2023-05-08T05:39:28.198Z,1015.94
2023-05-08T05:40:28.173Z,1015.93
2023-05-08T05:41:28.158Z,1015.88
2023-05-08T05:42:28.160Z,1015.93
2023-05-08T05:43:28.110Z,1015.93
2023-05-08T05:44:28.077Z,1015.92
2023-05-08T05:45:28.063Z,1015.94
2023-05-08T05:46:28.083Z,1015.97
2023-05-08T05:47:28.031Z,1016.00
2023-05-08T05:48:27.994Z,1016.00
2023-05-08T05:49:27.970Z,1016.01
2023-05-08T05:50:27.943Z,1015.98
2023-05-08T05:51:27.947Z,1016.03
2023-05-08T05:52:27.915Z,1016.01
2023-05-08T05:53:27.878Z,1016.02
2023-05-08T05:54:27.859Z,1016.01
2023-05-08T05:55:27.834Z,1016.05
2023-05-08T05:56:27.807Z,1015.99
2023-05-08T05:57:27.794Z,1016.01
2023-05-08T05:58:27.766Z,1016.01
2023-05-08T05:59:27.754Z,1016.00
2023-05-08T06:00:27.728Z,1016.02
2023-05-08T06:01:27.708Z,1016.00
2023-05-08T06:02:27.796Z,1016.04
2023-05-08T06:03:27.714Z,1016.06
2023-05-08T06:04:27.748Z,1016.06
2023-05-08T06:05:27.612Z,1016.07
2023-05-08T06:06:27.595Z,1016.06
2023-05-08T06:07:27.652Z,1016.05
2023-05-08T06:08:27.547Z,1016.07
2023-05-08T06:09:27.526Z,1016.07
2023-05-08T06:10:27.559Z,1016.10
2023-05-08T06:11:27.511Z,1016.05
2023-05-08T06:12:27.458Z,1016.05
2023-05-08T06:13:27.520Z,1016.03
2023-05-08T06:14:27.413Z,1016.04
2023-05-08T06:15:27.383Z,1016.02
2023-05-08T06:16:27.374Z,1016.03
2023-05-08T06:17:27.414Z,1016.01
2023-05-08T06:18:27.327Z,1016.01
2023-05-08T06:19:27.296Z,1016.00
2023-05-08T06:20:27.350Z,1016.00
2023-05-08T06:21:27.261Z,1016.00
2023-05-08T06:22:27.228Z,1016.01
2023-05-08T06:23:27.270Z,1016.04
2023-05-08T06:24:27.182Z,1016.02
2023-05-08T06:25:27.164Z,1016.03
2023-05-08T06:26:27.139Z,1016.02
2023-05-08T06:27:27.127Z,1016.03
2023-05-08T06:28:27.091Z,1016.02
2023-05-08T06:29:27.078Z,1016.04
2023-05-08T06:30:27.150Z,1016.02
2023-05-08T06:31:27.256Z,1016.04
2023-05-08T06:32:27.044Z,1016.04
2023-05-08T06:33:27.269Z,1016.05
2023-05-08T06:34:26.968Z,1016.05
2023-05-08T06:35:26.956Z,1016.08
2023-05-08T06:36:26.932Z,1016.03
2023-05-08T06:37:26.902Z,1016.07
2023-05-08T06:38:26.897Z,1016.05
2023-05-08T06:39:26.886Z,1016.05
2023-05-08T06:40:26.864Z,1016.03
2023-05-08T06:41:26.811Z,1015.97
2023-05-08T06:42:26.788Z,1015.98
2023-05-08T06:43:26.771Z,1015.93
2023-05-08T06:44:26.745Z,1016.00
2023-05-08T06:45:26.726Z,1015.93
2023-05-08T06:46:26.746Z,1015.95
2023-05-08T06:47:26.712Z,1015.94
2023-05-08T06:48:26.679Z,1015.92
2023-05-08T06:49:26.642Z,1015.91
2023-05-08T06:50:26.685Z,1015.90
2023-05-08T06:51:26.592Z,1015.91
2023-05-08T06:52:26.567Z,1015.85
2023-05-08T06:53:26.546Z,1015.87
2023-05-08T06:54:26.517Z,1015.84
2023-05-08T06:55:26.540Z,1015.89
2023-05-08T06:56:26.479Z,1015.86
2023-05-08T06:57:26.480Z,1015.88
2023-05-08T06:58:26.434Z,1015.88
2023-05-08T06:59:26.426Z,1015.85
2023-05-08T07:00:26.464Z,1015.87
2023-05-08T07:01:26.429Z,1015.86
2023-05-08T07:02:26.378Z,1015.85
2023-05-08T07:03:26.324Z,1015.81
2023-05-08T07:04:26.337Z,1015.83
2023-05-08T07:05:26.285Z,1015.84
2023-05-08T07:06:26.258Z,1015.84
2023-05-08T07:07:26.241Z,1015.85
2023-05-08T07:08:26.214Z,1015.85
2023-05-08T07:09:26.200Z,1015.85
2023-05-08T07:10:26.173Z,1015.86
2023-05-08T07:11:26.183Z,1015.82
2023-05-08T07:12:26.128Z,1015.84
2023-05-08T07:13:26.165Z,1015.85
2023-05-08T07:14:26.082Z,1015.84
2023-05-08T07:15:27.103Z,1015.80
2023-05-08T07:16:26.063Z,1015.81
2023-05-08T07:17:26.044Z,1015.82
2023-05-08T07:18:25.992Z,1015.81
2023-05-08T07:19:25.999Z,1015.80
2023-05-08T07:20:26.021Z,1015.79
2023-05-08T07:21:25.933Z,1015.82
2023-05-08T07:22:25.936Z,1015.84
2023-05-08T07:23:25.889Z,1015.84
2023-05-08T07:24:25.863Z,1015.89
2023-05-08T07:25:25.858Z,1015.88
2023-05-08T07:26:25.837Z,1015.91
2023-05-08T07:27:25.833Z,1015.92
2023-05-08T07:28:25.782Z,1015.97
2023-05-08T07:29:25.776Z,1015.98
2023-05-08T07:30:25.746Z,1016.01
2023-05-08T07:31:25.731Z,1016.01
2023-05-08T07:32:25.766Z,1016.02
2023-05-08T07:33:25.671Z,1016.00
2023-05-08T07:34:25.654Z,1016.03
2023-05-08T07:35:25.638Z,1016.00
2023-05-08T07:36:25.607Z,1016.00
2023-05-08T07:37:25.586Z,1016.00
2023-05-08T07:38:25.562Z,1015.99
2023-05-08T07:39:25.604Z,1015.97
2023-05-08T07:40:25.516Z,1015.99
2023-05-08T07:41:25.564Z,1016.00
2023-05-08T07:42:25.472Z,1016.00
2023-05-08T07:43:25.490Z,1016.01
2023-05-08T07:44:25.425Z,1015.98
2023-05-08T07:45:25.405Z,1015.99
2023-05-08T07:46:25.479Z,1016.02
2023-05-08T07:47:25.417Z,1016.02
2023-05-08T07:48:25.333Z,1016.02
2023-05-08T07:49:25.376Z,1016.07
2023-05-08T07:50:25.301Z,1016.05
2023-05-08T07:51:25.282Z,1016.06
2023-05-08T07:52:25.258Z,1016.06
2023-05-08T07:53:25.233Z,1016.08
2023-05-08T07:54:25.207Z,1016.06
2023-05-08T07:55:25.207Z,1016.06
2023-05-08T07:56:25.179Z,1016.07
2023-05-08T07:57:25.155Z,1016.06
2023-05-08T07:58:25.141Z,1016.06
2023-05-08T07:59:25.243Z,1016.07
2023-05-08T08:00:25.078Z,1016.07
2023-05-08T08:01:25.084Z,1016.06
2023-05-08T08:02:25.126Z,1016.07
2023-05-08T08:03:25.085Z,1016.06
2023-05-08T08:04:25.093Z,1016.08
2023-05-08T08:05:24.970Z,1016.09
2023-05-08T08:06:24.950Z,1016.12
2023-05-08T08:07:24.931Z,1016.09
2023-05-08T08:08:24.906Z,1016.11
2023-05-08T08:09:24.882Z,1016.12
2023-05-08T08:10:24.867Z,1016.11
2023-05-08T08:11:24.860Z,1016.13
2023-05-08T08:12:24.826Z,1016.14
2023-05-08T08:13:24.898Z,1016.14
2023-05-08T08:14:24.790Z,1016.16
2023-05-08T08:15:24.832Z,1016.12
2023-05-08T08:16:24.770Z,1016.14
2023-05-08T08:17:26.857Z,1016.13
2023-05-08T08:18:24.694Z,1016.15
2023-05-08T08:19:24.704Z,1016.18
2023-05-08T08:20:24.659Z,1016.16
2023-05-08T08:21:24.633Z,1016.14
2023-05-08T08:22:24.620Z,1016.17
2023-05-08T08:23:24.599Z,1016.16
2023-05-08T08:24:24.572Z,1016.17
2023-05-08T08:25:24.618Z,1016.22
2023-05-08T08:26:24.528Z,1016.20
2023-05-08T08:27:24.513Z,1016.19
2023-05-08T08:28:24.483Z,1016.20
2023-05-08T08:29:24.507Z,1016.22
2023-05-08T08:30:24.443Z,1016.21
2023-05-08T08:31:24.587Z,1016.20
2023-05-08T08:32:24.441Z,1016.19
2023-05-08T08:33:24.382Z,1016.16
2023-05-08T08:34:24.362Z,1016.19
2023-05-08T08:35:24.339Z,1016.20
2023-05-08T08:36:24.327Z,1016.22
2023-05-08T08:37:24.309Z,1016.20
2023-05-08T08:38:24.281Z,1016.15
2023-05-08T08:39:24.319Z,1016.18
2023-05-08T08:40:24.235Z,1016.16
2023-05-08T08:41:24.216Z,1016.17
2023-05-08T08:42:24.189Z,1016.20
2023-05-08T08:43:24.171Z,1016.22
2023-05-08T08:44:24.151Z,1016.21
2023-05-08T08:45:24.149Z,1016.21
2023-05-08T08:46:24.154Z,1016.20
2023-05-08T08:47:24.235Z,1016.18
2023-05-08T08:48:24.071Z,1016.24
2023-05-08T08:49:24.102Z,1016.23
2023-05-08T08:50:24.034Z,1016.21
2023-05-08T08:51:24.009Z,1016.19
2023-05-08T08:52:23.989Z,1016.20
2023-05-08T08:53:23.973Z,1016.23
2023-05-08T08:54:23.945Z,1016.20
2023-05-08T08:55:23.924Z,1016.25
2023-05-08T08:56:23.901Z,1016.24
2023-05-08T08:57:23.877Z,1016.27
2023-05-08T08:58:23.874Z,1016.24
2023-05-08T08:59:23.876Z,1016.27
2023-05-08T09:00:23.829Z,1016.27
2023-05-08T09:01:23.812Z,1016.26
2023-05-08T09:02:24.007Z,1016.25
2023-05-08T09:03:24.026Z,1016.27
2023-05-08T09:04:23.793Z,1016.26
2023-05-08T09:05:23.749Z,1016.27
2023-05-08T09:06:23.705Z,1016.28
2023-05-08T09:07:23.693Z,1016.21
2023-05-08T09:08:23.658Z,1016.26
2023-05-08T09:09:23.643Z,1016.25
2023-05-08T09:10:23.642Z,1016.25
2023-05-08T09:11:23.599Z,1016.26
2023-05-08T09:12:23.590Z,1016.25
2023-05-08T09:13:23.572Z,1016.24
2023-05-08T09:14:23.536Z,1016.26
2023-05-08T09:15:23.515Z,1016.21
2023-05-08T09:16:23.521Z,1016.23
2023-05-08T09:17:23.493Z,1016.23
2023-05-08T09:18:23.452Z,1016.23
2023-05-08T09:19:26.222Z,1016.21
2023-05-08T09:20:23.420Z,1016.22
2023-05-08T09:21:23.415Z,1016.20
2023-05-08T09:22:23.381Z,1016.22
2023-05-08T09:23:23.356Z,1016.20
2023-05-08T09:24:23.330Z,1016.20
2023-05-08T09:25:23.314Z,1016.19
2023-05-08T09:26:23.294Z,1016.16
2023-05-08T09:27:23.267Z,1016.18
2023-05-08T09:28:23.259Z,1016.19
2023-05-08T09:29:23.229Z,1016.18
2023-05-08T09:30:23.213Z,1016.17
2023-05-08T09:31:23.211Z,1016.19
2023-05-08T09:32:23.186Z,1016.20
2023-05-08T09:33:23.156Z,1016.21
2023-05-08T09:34:23.134Z,1016.20
2023-05-08T09:35:23.225Z,1016.21
2023-05-08T09:36:23.094Z,1016.22
2023-05-08T09:37:23.060Z,1016.23
2023-05-08T09:38:23.050Z,1016.25
2023-05-08T09:39:23.024Z,1016.21
2023-05-08T09:40:23.006Z,1016.22
2023-05-08T09:41:22.982Z,1016.21
2023-05-08T09:42:22.961Z,1016.21
2023-05-08T09:43:22.954Z,1016.22
2023-05-08T09:44:22.920Z,1016.24
2023-05-08T09:45:22.909Z,1016.24
2023-05-08T09:46:22.978Z,1016.24
2023-05-08T09:47:22.952Z,1016.23
2023-05-08T09:48:22.847Z,1016.28
2023-05-08T09:49:22.822Z,1016.24
2023-05-08T09:50:22.799Z,1016.22
2023-05-08T09:51:22.905Z,1016.27
2023-05-08T09:52:22.763Z,1016.25
2023-05-08T09:53:22.736Z,1016.26
2023-05-08T09:54:22.726Z,1016.27
2023-05-08T09:55:22.699Z,1016.30
2023-05-08T09:56:22.682Z,1016.30
2023-05-08T09:57:22.661Z,1016.29
2023-05-08T09:58:22.644Z,1016.29
2023-05-08T09:59:22.656Z,1016.31
2023-05-08T10:00:22.609Z,1016.33
2023-05-08T10:01:22.631Z,1016.31
2023-05-08T10:02:22.592Z,1016.30
2023-05-08T10:03:22.574Z,1016.31
2023-05-08T10:04:22.522Z,1016.30
2023-05-08T10:05:22.579Z,1016.29
2023-05-08T10:06:22.480Z,1016.27
2023-05-08T10:07:22.583Z,1016.28
2023-05-08T10:08:22.436Z,1016.25
2023-05-08T10:09:22.447Z,1016.29
2023-05-08T10:10:22.400Z,1016.23
2023-05-08T10:11:22.375Z,1016.25
2023-05-08T10:12:22.357Z,1016.21
2023-05-08T10:13:22.448Z,1016.20
2023-05-08T10:14:22.340Z,1016.21
2023-05-08T10:15:22.298Z,1016.23
2023-05-08T10:16:22.336Z,1016.22
2023-05-08T10:17:22.330Z,1016.28
2023-05-08T10:18:22.253Z,1016.30
2023-05-08T10:19:22.218Z,1016.24
2023-05-08T10:20:22.269Z,1016.26
2023-05-08T10:21:22.174Z,1016.27
2023-05-08T10:22:22.166Z,1016.29
2023-05-08T10:23:22.263Z,1016.28
2023-05-08T10:24:22.118Z,1016.28
2023-05-08T10:25:22.109Z,1016.28
2023-05-08T10:26:22.083Z,1016.26
2023-05-08T10:27:22.062Z,1016.31
2023-05-08T10:28:22.039Z,1016.30
2023-05-08T10:29:22.018Z,1016.26
2023-05-08T10:30:22.003Z,1016.26
2023-05-08T10:31:22.156Z,1016.29
2023-05-08T10:32:22.019Z,1016.28
2023-05-08T10:33:21.944Z,1016.28
2023-05-08T10:34:21.920Z,1016.28
2023-05-08T10:35:21.913Z,1016.29
2023-05-08T10:36:21.881Z,1016.26
2023-05-08T10:37:21.858Z,1016.23
2023-05-08T10:38:21.842Z,1016.25
2023-05-08T10:39:21.946Z,1016.25
2023-05-08T10:40:21.802Z,1016.28
2023-05-08T10:41:21.778Z,1016.28
2023-05-08T10:42:21.779Z,1016.26
2023-05-08T10:43:21.737Z,1016.26
2023-05-08T10:44:21.716Z,1016.26
2023-05-08T10:45:21.701Z,1016.26
2023-05-08T10:46:21.724Z,1016.25
2023-05-08T10:47:21.666Z,1016.21
2023-05-08T10:48:21.660Z,1016.21
2023-05-08T10:49:21.672Z,1016.20
2023-05-08T10:50:21.591Z,1016.16
2023-05-08T10:51:21.584Z,1016.20
2023-05-08T10:52:21.565Z,1016.18
2023-05-08T10:53:21.534Z,1016.18
2023-05-08T10:54:21.527Z,1016.16
2023-05-08T10:55:21.526Z,1016.11
2023-05-08T10:56:21.488Z,1016.14
2023-05-08T10:57:21.477Z,1016.12
2023-05-08T10:58:21.435Z,1016.11
2023-05-08T10:59:21.429Z,1016.06
2023-05-08T11:00:21.402Z,1016.08
2023-05-08T11:01:21.417Z,1016.06
2023-05-08T11:02:21.360Z,1016.06
2023-05-08T11:03:31.526Z,1016.07
2023-05-08T11:04:21.626Z,1016.06
2023-05-08T11:05:21.320Z,1016.06
2023-05-08T11:06:21.282Z,1016.04
2023-05-08T11:07:21.263Z,1016.08
2023-05-08T11:08:21.247Z,1016.10
2023-05-08T11:09:21.221Z,1016.05
2023-05-08T11:10:21.198Z,1016.06
2023-05-08T11:11:21.187Z,1016.02
2023-05-08T11:12:21.152Z,1016.00
2023-05-08T11:13:21.155Z,1015.98
2023-05-08T11:14:21.117Z,1015.99
2023-05-08T11:15:21.092Z,1015.97
2023-05-08T11:16:21.106Z,1015.97
2023-05-08T11:17:21.104Z,1015.96
2023-05-08T11:18:21.037Z,1015.94
2023-05-08T11:19:21.017Z,1015.97
2023-05-08T11:20:20.989Z,1015.96
2023-05-08T11:21:20.975Z,1015.99
2023-05-08T11:22:20.958Z,1015.95
2023-05-08T11:23:20.941Z,1015.96
2023-05-08T11:24:20.912Z,1015.94
2023-05-08T11:25:20.889Z,1015.93
2023-05-08T11:26:20.885Z,1015.93
2023-05-08T11:27:20.869Z,1015.92
2023-05-08T11:28:20.831Z,1015.93
2023-05-08T11:29:20.814Z,1015.92
2023-05-08T11:30:20.804Z,1015.92
2023-05-08T11:31:20.824Z,1015.94
2023-05-08T11:32:20.810Z,1015.88
2023-05-08T11:33:20.728Z,1015.94
2023-05-08T11:34:20.715Z,1015.92
2023-05-08T11:35:20.695Z,1015.91
2023-05-08T11:36:20.696Z,1015.95
2023-05-08T11:37:20.719Z,1015.92
2023-05-08T11:38:20.637Z,1015.91
2023-05-08T11:39:20.611Z,1015.91
2023-05-08T11:40:20.595Z,1015.87
2023-05-08T11:41:20.571Z,1015.87
2023-05-08T11:42:20.553Z,1015.82
2023-05-08T11:43:20.554Z,1015.84
2023-05-08T11:44:20.657Z,1015.83
2023-05-08T11:45:20.496Z,1015.81
2023-05-08T11:46:20.521Z,1015.84
2023-05-08T11:47:20.597Z,1015.83
2023-05-08T11:48:20.437Z,1015.86
2023-05-08T11:49:24.725Z,1015.83
2023-05-08T11:50:20.400Z,1015.81
2023-05-08T11:51:20.382Z,1015.83
2023-05-08T11:52:20.357Z,1015.84
2023-05-08T11:53:20.341Z,1015.83
2023-05-08T11:54:20.323Z,1015.81
2023-05-08T11:55:20.298Z,1015.79
2023-05-08T11:56:20.287Z,1015.78
2023-05-08T11:57:20.263Z,1015.86
2023-05-08T11:58:20.244Z,1015.79
2023-05-08T11:59:20.264Z,1015.81
2023-05-08T12:00:20.255Z,1015.83
2023-05-08T12:01:20.181Z,1015.81
2023-05-08T12:02:20.174Z,1015.80
2023-05-08T12:03:20.263Z,1015.77
2023-05-08T12:04:20.251Z,1015.82
2023-05-08T12:05:20.120Z,1015.83